Time;durP1;ratioP1;P1;durP2;ratioP2;P2;SDS_P1;SDS_P2;PMS_P1;PMS_P2;Temp;Humidity;BMP_temperature;BMP_pressure;BME280_temperature;BME280_humidity;BME280_pressure;Samples;Min_cycle;Max_cycle;Signal;HPM_P1;HPM_P2
2024/01/31 00:00:41;;;;;;;5.30;2.97;;;8.30;99.90;;;;;;5100438;28;20459;-81
2024/01/31 00:03:08;;;;;;;4.00;2.50;;;8.20;99.90;;;;;;5100027;28;20458;-80
2024/01/31 00:05:35;;;;;;;3.33;1.73;;;8.20;99.90;;;;;;5100232;28;20435;-81
2024/01/31 00:08:02;;;;;;;2.90;1.47;;;8.30;99.90;;;;;;5098785;28;20510;-81
2024/01/31 00:10:29;;;;;;;1.60;1.50;;;8.20;99.90;;;;;;5101548;28;20467;-82
2024/01/31 00:12:55;;;;;;;1.53;1.40;;;8.20;99.90;;;;;;5103463;28;20447;-81
2024/01/31 00:15:22;;;;;;;1.47;1.10;;;8.30;99.90;;;;;;5102380;28;20448;-82
2024/01/31 00:17:51;;;;;;;1.47;1.30;;;8.20;99.90;;;;;;5102061;28;20444;-81
2024/01/31 00:20:17;;;;;;;2.00;1.63;;;8.20;99.90;;;;;;5100439;28;20454;-81
2024/01/31 00:22:44;;;;;;;2.73;1.10;;;8.20;99.90;;;;;;5099054;28;20440;-81
2024/01/31 00:25:11;;;;;;;4.97;1.57;;;8.20;99.90;;;;;;5098873;28;20448;-81
2024/01/31 00:27:38;;;;;;;8.93;1.53;;;8.20;99.90;;;;;;5099709;28;20459;-81
2024/01/31 00:30:05;;;;;;;1.03;0.80;;;8.20;99.90;;;;;;5098441;28;20483;-82
2024/01/31 00:32:32;;;;;;;1.40;1.30;;;8.20;99.90;;;;;;5098668;28;20436;-82
2024/01/31 00:35:00;;;;;;;1.70;1.60;;;8.20;99.90;;;;;;5098757;28;20440;-81
2024/01/31 00:37:27;;;;;;;1.57;1.47;;;8.30;99.90;;;;;;5098536;28;20448;-80
2024/01/31 00:39:53;;;;;;;2.40;2.10;;;8.30;99.90;;;;;;5098329;28;20932;-81
2024/01/31 00:42:20;;;;;;;0.70;0.70;;;8.30;99.90;;;;;;5097953;28;20463;-81
2024/01/31 00:44:47;;;;;;;1.33;1.13;;;8.30;99.90;;;;;;5098855;28;20447;-81
2024/01/31 00:47:14;;;;;;;2.00;1.30;;;8.30;99.90;;;;;;5097751;28;20821;-81
2024/01/31 00:49:40;;;;;;;2.83;1.50;;;8.30;99.90;;;;;;5098227;28;20482;-81
2024/01/31 00:52:08;;;;;;;6.20;2.03;;;8.30;99.90;;;;;;5097544;28;20455;-82
2024/01/31 00:54:35;;;;;;;3.30;1.50;;;8.30;99.90;;;;;;5097559;28;20448;-81
2024/01/31 00:57:02;;;;;;;3.07;1.87;;;8.30;99.90;;;;;;5097362;28;20483;-80
2024/01/31 00:59:28;;;;;;;1.67;1.30;;;8.30;99.90;;;;;;5097047;28;20990;-81
2024/01/31 01:01:55;;;;;;;2.03;1.70;;;8.30;99.90;;;;;;5097360;28;20469;-81
2024/01/31 01:04:22;;;;;;;2.87;1.47;;;8.30;99.90;;;;;;5097633;28;20493;-79
2024/01/31 01:06:49;;;;;;;1.57;1.03;;;8.30;99.90;;;;;;5096536;28;20448;-81
2024/01/31 01:09:17;;;;;;;1.30;1.20;;;8.30;99.90;;;;;;5097192;28;20832;-80
2024/01/31 01:11:43;;;;;;;3.87;1.60;;;8.40;99.90;;;;;;5097134;28;20498;-82
2024/01/31 01:14:10;;;;;;;2.30;1.43;;;8.30;99.90;;;;;;5097561;28;20455;-81
2024/01/31 01:16:37;;;;;;;1.93;1.83;;;8.30;99.90;;;;;;5107014;28;20456;-81
2024/01/31 01:19:04;;;;;;;3.77;1.63;;;8.30;99.90;;;;;;5108994;28;20443;-80
2024/01/31 01:21:31;;;;;;;1.70;1.60;;;8.30;99.90;;;;;;5108668;28;20492;-81
2024/01/31 01:23:58;;;;;;;1.80;1.20;;;8.30;99.90;;;;;;5109933;28;20444;-81
2024/01/31 01:26:26;;;;;;;2.10;1.90;;;8.30;99.90;;;;;;5109507;28;20932;-81
2024/01/31 01:28:53;;;;;;;1.63;1.33;;;8.40;99.90;;;;;;5107893;28;20486;-81
2024/01/31 01:31:20;;;;;;;3.30;1.83;;;8.40;99.90;;;;;;5107285;28;20468;-82
2024/01/31 01:33:46;;;;;;;2.80;1.83;;;8.40;99.90;;;;;;5104332;28;20955;-81
2024/01/31 01:36:13;;;;;;;2.37;1.57;;;8.30;99.90;;;;;;5101307;28;20435;-81
2024/01/31 01:38:40;;;;;;;5.20;2.27;;;8.30;99.90;;;;;;5100017;28;20953;-82
2024/01/31 01:41:06;;;;;;;5.67;1.13;;;8.40;99.90;;;;;;5099545;28;20448;-80
2024/01/31 01:43:34;;;;;;;3.77;1.73;;;8.30;99.90;;;;;;5099796;28;20456;-82
2024/01/31 01:46:16;;;;;;;1.50;1.40;;;8.40;99.90;;;;;;5099678;28;20449;-82
2024/01/31 01:48:44;;;;;;;2.90;1.20;;;8.40;99.90;;;;;;5098758;28;20471;-80
2024/01/31 01:51:11;;;;;;;4.07;1.27;;;8.40;99.90;;;;;;5099082;28;20459;-81
2024/01/31 01:53:38;;;;;;;2.83;1.27;;;8.40;99.90;;;;;;5098540;28;20447;-82
2024/01/31 01:56:08;;;;;;;1.90;1.20;;;8.40;99.90;;;;;;5103060;28;20444;-81
2024/01/31 01:58:37;;;;;;;1.27;0.90;;;8.40;99.90;;;;;;5102639;28;20501;-80
2024/01/31 02:01:05;;;;;;;1.20;1.10;;;8.40;99.90;;;;;;5102442;28;20459;-81
2024/01/31 02:03:32;;;;;;;2.33;1.30;;;8.40;99.90;;;;;;5102527;28;20455;-80
2024/01/31 02:06:00;;;;;;;1.33;1.07;;;8.40;99.90;;;;;;5101904;28;20439;-80
2024/01/31 02:08:27;;;;;;;3.60;1.27;;;8.40;99.90;;;;;;5101934;28;20482;-80
2024/01/31 02:10:54;;;;;;;1.67;0.83;;;8.50;99.90;;;;;;5102097;28;20455;-80
2024/01/31 02:13:21;;;;;;;1.80;1.70;;;8.40;99.90;;;;;;5102179;28;20435;-80
2024/01/31 02:15:56;;;;;;;4.70;1.40;;;8.40;99.90;;;;;;5101593;28;20482;-80
2024/01/31 02:18:23;;;;;;;2.60;1.30;;;8.40;99.90;;;;;;5101873;28;20432;-80
2024/01/31 02:20:50;;;;;;;1.23;1.03;;;8.40;99.90;;;;;;5101758;28;20474;-81
2024/01/31 02:23:18;;;;;;;2.40;1.67;;;8.50;99.90;;;;;;5101636;28;20435;-80
2024/01/31 02:25:45;;;;;;;1.50;1.00;;;8.40;99.90;;;;;;5101399;28;20444;-81
2024/01/31 02:28:12;;;;;;;1.03;0.93;;;8.40;99.90;;;;;;5101475;28;20451;-80
2024/01/31 02:30:39;;;;;;;1.53;1.43;;;8.40;99.90;;;;;;5101779;28;20491;-81
2024/01/31 02:33:06;;;;;;;3.40;1.63;;;8.40;99.90;;;;;;5101384;28;20920;-80
2024/01/31 02:35:34;;;;;;;3.20;1.53;;;8.40;99.90;;;;;;5102317;28;20801;-81
2024/01/31 02:38:01;;;;;;;2.93;2.00;;;8.40;99.90;;;;;;5101319;28;20439;-80
2024/01/31 02:40:29;;;;;;;3.13;2.17;;;8.40;99.90;;;;;;5101225;28;20544;-80
2024/01/31 02:42:56;;;;;;;3.43;1.83;;;8.50;99.90;;;;;;5101050;28;20440;-80
2024/01/31 02:45:23;;;;;;;7.07;2.13;;;8.40;99.90;;;;;;5101529;28;20459;-80
2024/01/31 02:47:50;;;;;;;1.13;1.03;;;8.40;99.90;;;;;;5100960;28;20444;-82
2024/01/31 02:50:17;;;;;;;2.50;1.43;;;8.30;99.90;;;;;;5101143;28;20498;-80
2024/01/31 02:52:45;;;;;;;1.87;1.43;;;8.30;99.90;;;;;;5100599;28;20440;-80
2024/01/31 02:55:12;;;;;;;2.90;2.23;;;8.40;99.90;;;;;;5100475;28;20451;-80
2024/01/31 02:57:40;;;;;;;2.97;1.70;;;8.40;99.90;;;;;;5101216;28;20439;-80
2024/01/31 03:00:11;;;;;;;1.40;1.30;;;8.30;99.90;;;;;;5100644;28;20436;-81
2024/01/31 03:02:38;;;;;;;3.77;2.07;;;8.20;99.90;;;;;;5100653;28;20432;-80
2024/01/31 03:05:06;;;;;;;4.50;2.33;;;8.20;99.90;;;;;;5099043;28;20451;-81
2024/01/31 03:07:32;;;;;;;5.23;1.83;;;8.10;99.90;;;;;;5098874;28;20488;-80
2024/01/31 03:09:59;;;;;;;3.60;1.57;;;8.10;99.90;;;;;;5098552;28;20482;-80
2024/01/31 03:12:26;;;;;;;2.73;1.80;;;7.90;99.90;;;;;;5097773;28;20464;-81
2024/01/31 03:14:54;;;;;;;1.73;1.50;;;7.80;99.90;;;;;;5097173;28;20432;-81
2024/01/31 03:17:21;;;;;;;1.10;1.00;;;7.80;99.90;;;;;;5097198;28;20452;-81
2024/01/31 03:19:47;;;;;;;3.17;1.97;;;7.70;99.90;;;;;;5097612;28;20444;-81
2024/01/31 03:22:14;;;;;;;1.70;1.60;;;7.70;99.90;;;;;;5097103;28;20456;-81
2024/01/31 03:24:41;;;;;;;2.23;2.00;;;7.70;99.90;;;;;;5097939;28;20797;-81
2024/01/31 03:27:07;;;;;;;2.77;1.93;;;7.80;99.90;;;;;;5099534;28;20439;-81
2024/01/31 03:29:36;;;;;;;2.03;1.83;;;7.70;99.90;;;;;;5099972;28;20490;-81
2024/01/31 03:32:04;;;;;;;1.43;1.00;;;7.80;99.90;;;;;;5097350;28;20474;-81
2024/01/31 03:34:31;;;;;;;3.03;1.50;;;7.80;99.90;;;;;;5097163;28;20446;-81
2024/01/31 03:36:58;;;;;;;2.90;1.53;;;7.90;99.90;;;;;;5097744;28;20456;-81
2024/01/31 03:39:25;;;;;;;3.00;1.77;;;7.90;99.90;;;;;;5098610;28;20444;-81
2024/01/31 03:41:51;;;;;;;1.73;1.33;;;7.80;99.90;;;;;;5098513;28;20464;-80
2024/01/31 03:44:18;;;;;;;1.43;1.20;;;7.80;99.90;;;;;;5098612;28;20435;-80
2024/01/31 03:46:45;;;;;;;3.03;2.17;;;7.80;99.90;;;;;;5098701;28;20447;-81
2024/01/31 03:49:13;;;;;;;4.10;1.80;;;7.90;99.90;;;;;;5098281;28;20479;-81
2024/01/31 03:51:39;;;;;;;4.23;1.50;;;7.80;99.90;;;;;;5098573;28;20452;-80
2024/01/31 03:54:06;;;;;;;3.87;2.13;;;7.90;99.90;;;;;;5098503;28;20448;-80
2024/01/31 03:56:33;;;;;;;1.67;1.57;;;7.90;99.90;;;;;;5098622;28;20448;-80
2024/01/31 03:59:00;;;;;;;3.23;2.03;;;7.90;99.90;;;;;;5098588;28;20940;-80
2024/01/31 04:01:26;;;;;;;2.20;1.10;;;7.90;99.90;;;;;;5098966;28;20460;-81
2024/01/31 04:03:53;;;;;;;3.43;1.70;;;7.90;99.90;;;;;;5098736;28;20459;-80
2024/01/31 04:06:21;;;;;;;1.80;1.70;;;7.90;99.90;;;;;;5098184;28;20440;-80
2024/01/31 04:08:48;;;;;;;3.20;1.70;;;8.00;99.90;;;;;;5097737;28;20471;-80
2024/01/31 04:11:15;;;;;;;1.93;1.73;;;8.00;99.90;;;;;;5097601;28;20492;-80
2024/01/31 04:13:44;;;;;;;1.83;1.63;;;8.00;99.90;;;;;;5097549;28;20440;-80
2024/01/31 04:16:15;;;;;;;3.70;2.30;;;8.00;99.90;;;;;;5097158;28;20450;-80
2024/01/31 04:18:42;;;;;;;2.40;1.57;;;8.10;99.90;;;;;;5095693;28;20429;-81
2024/01/31 04:21:08;;;;;;;2.50;1.90;;;8.00;99.90;;;;;;5096225;28;20456;-81
2024/01/31 04:23:37;;;;;;;2.23;1.97;;;7.90;99.90;;;;;;5096350;28;20425;-80
2024/01/31 04:26:04;;;;;;;1.50;1.00;;;8.00;99.90;;;;;;5095840;28;20803;-81
2024/01/31 04:28:31;;;;;;;2.80;2.37;;;7.90;99.90;;;;;;5096611;28;20440;-81
2024/01/31 04:30:58;;;;;;;2.70;2.23;;;7.80;99.90;;;;;;5096593;28;20479;-81
2024/01/31 04:33:25;;;;;;;2.23;2.00;;;7.80;99.90;;;;;;5098081;28;20467;-81
2024/01/31 04:35:52;;;;;;;3.37;2.83;;;7.80;99.90;;;;;;5097666;28;20444;-81
2024/01/31 04:38:19;;;;;;;6.70;3.13;;;7.80;99.90;;;;;;5097826;28;20448;-81
2024/01/31 04:40:47;;;;;;;6.87;2.50;;;7.80;99.90;;;;;;5096729;28;20491;-81
2024/01/31 04:43:16;;;;;;;3.93;2.50;;;7.80;99.90;;;;;;5096972;28;20446;-81
2024/01/31 04:45:43;;;;;;;3.27;2.07;;;7.90;99.90;;;;;;5097328;28;20462;-81
2024/01/31 04:48:10;;;;;;;3.73;1.90;;;7.80;99.90;;;;;;5097215;28;20440;-81
2024/01/31 04:50:36;;;;;;;2.70;2.20;;;7.80;99.90;;;;;;5098988;28;20526;-81
2024/01/31 04:53:03;;;;;;;3.60;2.37;;;7.70;99.90;;;;;;5101708;28;20451;-81
2024/01/31 04:55:30;;;;;;;2.70;1.63;;;7.70;99.90;;;;;;5098302;28;20447;-81
2024/01/31 04:57:58;;;;;;;6.53;2.80;;;7.60;99.90;;;;;;5099282;28;20443;-81
2024/01/31 05:00:26;;;;;;;3.57;2.50;;;7.70;99.90;;;;;;5096266;28;20981;-81
2024/01/31 05:02:53;;;;;;;4.17;2.67;;;7.70;99.90;;;;;;5098088;28;20451;-81
2024/01/31 05:05:20;;;;;;;3.93;1.80;;;7.70;99.90;;;;;;5097696;28;20436;-81
2024/01/31 05:07:47;;;;;;;2.80;1.83;;;7.70;99.90;;;;;;5097255;28;20541;-81
2024/01/31 05:10:14;;;;;;;2.80;1.97;;;7.70;99.90;;;;;;5096379;28;21027;-81
2024/01/31 05:12:40;;;;;;;2.20;1.73;;;7.80;99.90;;;;;;5096621;28;20944;-81
2024/01/31 05:15:09;;;;;;;2.47;1.70;;;7.80;99.90;;;;;;5096666;28;20456;-81
2024/01/31 05:17:36;;;;;;;3.93;2.57;;;7.80;99.90;;;;;;5096238;28;20814;-81
2024/01/31 05:20:03;;;;;;;2.80;1.50;;;7.60;99.90;;;;;;5096675;28;20440;-81
2024/01/31 05:22:29;;;;;;;2.20;1.90;;;7.60;99.90;;;;;;5096110;28;20933;-81
2024/01/31 05:24:56;;;;;;;4.30;1.60;;;7.60;99.90;;;;;;5095585;28;20436;-81
2024/01/31 05:27:23;;;;;;;2.10;1.67;;;7.70;99.90;;;;;;5095875;28;20807;-80
2024/01/31 05:29:49;;;;;;;6.70;2.50;;;7.70;99.90;;;;;;5097931;28;20479;-81
2024/01/31 05:32:17;;;;;;;2.60;2.40;;;7.60;99.90;;;;;;5099635;28;20451;-81
2024/01/31 05:34:44;;;;;;;4.20;2.67;;;7.70;99.90;;;;;;5099796;28;20550;-81
2024/01/31 05:37:11;;;;;;;2.13;1.97;;;7.70;99.90;;;;;;5098758;28;20447;-81
2024/01/31 05:39:38;;;;;;;3.23;2.80;;;7.70;99.90;;;;;;5098315;28;20444;-81
2024/01/31 05:42:05;;;;;;;2.67;1.87;;;7.70;99.90;;;;;;5099566;28;20472;-81
2024/01/31 05:44:31;;;;;;;2.43;1.70;;;7.70;99.90;;;;;;5099583;28;20447;-81
2024/01/31 05:46:58;;;;;;;5.20;2.37;;;7.70;99.90;;;;;;5101590;28;20443;-81
2024/01/31 05:49:26;;;;;;;3.30;2.30;;;7.70;99.90;;;;;;5099504;28;20466;-82
2024/01/31 05:51:53;;;;;;;2.93;1.97;;;7.70;99.90;;;;;;5099874;28;20473;-81
2024/01/31 05:54:20;;;;;;;2.33;1.87;;;7.70;99.90;;;;;;5099759;28;20474;-81
2024/01/31 05:56:46;;;;;;;5.17;1.97;;;7.70;99.90;;;;;;5099183;28;20432;-81
2024/01/31 05:59:13;;;;;;;7.33;1.83;;;7.70;99.90;;;;;;5098738;28;20814;-81
2024/01/31 06:01:40;;;;;;;3.17;1.50;;;7.80;99.90;;;;;;5097852;28;20471;-81
2024/01/31 06:04:09;;;;;;;6.03;1.60;;;7.80;99.90;;;;;;5100661;28;20470;-81
2024/01/31 06:06:37;;;;;;;11.60;2.40;;;7.80;99.90;;;;;;5100217;28;20440;-82
2024/01/31 06:09:05;;;;;;;2.93;2.00;;;7.80;99.90;;;;;;5100617;28;20984;-81
2024/01/31 06:11:32;;;;;;;2.57;1.80;;;7.80;99.90;;;;;;5100741;28;20922;-82
2024/01/31 06:13:59;;;;;;;3.43;1.50;;;7.80;99.90;;;;;;5100377;28;20463;-82
2024/01/31 06:16:25;;;;;;;4.13;2.20;;;7.80;99.90;;;;;;5101028;28;20435;-82
2024/01/31 06:18:52;;;;;;;3.80;2.40;;;7.80;99.90;;;;;;5100420;28;20454;-82
2024/01/31 06:21:19;;;;;;;8.53;2.03;;;7.80;99.90;;;;;;5101676;28;20463;-82
2024/01/31 06:23:47;;;;;;;5.33;2.10;;;7.70;99.90;;;;;;5100359;28;20451;-82
2024/01/31 06:26:14;;;;;;;3.07;1.50;;;7.70;99.90;;;;;;5101269;28;20798;-82
2024/01/31 06:28:41;;;;;;;3.03;2.00;;;7.80;99.90;;;;;;5101582;28;20816;-81
2024/01/31 06:31:15;;;;;;;6.23;2.00;;;7.80;99.90;;;;;;5100784;28;20479;-81
2024/01/31 06:33:42;;;;;;;1.93;1.47;;;7.80;99.90;;;;;;5103136;28;20557;-82
2024/01/31 06:36:09;;;;;;;1.90;1.47;;;7.80;99.90;;;;;;5100689;28;20432;-82
2024/01/31 06:38:36;;;;;;;1.40;1.30;;;7.80;99.90;;;;;;5100817;28;20910;-80
2024/01/31 06:41:04;;;;;;;3.27;1.37;;;7.80;99.90;;;;;;5099101;28;20463;-80
2024/01/31 06:43:31;;;;;;;3.57;2.37;;;7.80;99.90;;;;;;5099811;28;20439;-80
2024/01/31 06:45:58;;;;;;;5.90;2.47;;;7.80;99.90;;;;;;5099312;28;20444;-80
2024/01/31 06:48:25;;;;;;;2.00;1.50;;;7.80;99.90;;;;;;5098651;28;20444;-81
2024/01/31 06:50:51;;;;;;;4.33;1.80;;;7.80;99.90;;;;;;5099059;28;21008;-80
2024/01/31 06:53:18;;;;;;;4.60;2.30;;;7.90;99.90;;;;;;5098731;28;20425;-80
2024/01/31 06:55:45;;;;;;;2.30;1.80;;;7.90;99.90;;;;;;5099120;28;20458;-80
2024/01/31 06:58:13;;;;;;;3.30;1.20;;;7.90;99.90;;;;;;5100302;28;20447;-80
2024/01/31 07:00:40;;;;;;;1.20;1.10;;;7.80;99.90;;;;;;5099269;28;20464;-81
2024/01/31 07:03:08;;;;;;;1.60;1.50;;;7.90;99.90;;;;;;5098761;28;20803;-80
2024/01/31 07:05:34;;;;;;;1.43;1.30;;;7.80;99.90;;;;;;5099316;28;20444;-82
2024/01/31 07:08:01;;;;;;;2.60;1.77;;;7.90;99.90;;;;;;5098300;28;21006;-80
2024/01/31 07:10:28;;;;;;;3.03;1.77;;;7.90;99.90;;;;;;5097449;28;21015;-80
2024/01/31 07:12:55;;;;;;;2.13;1.03;;;7.90;99.90;;;;;;5097968;28;20440;-80
2024/01/31 07:15:23;;;;;;;2.70;1.87;;;7.90;99.90;;;;;;5097745;28;20523;-80
2024/01/31 07:17:50;;;;;;;2.20;1.80;;;7.90;99.90;;;;;;5097922;28;20813;-81
2024/01/31 07:20:17;;;;;;;3.53;1.90;;;8.00;99.90;;;;;;5097983;28;20986;-80
2024/01/31 07:22:44;;;;;;;0.90;0.90;;;8.00;99.90;;;;;;5098653;28;20435;-80
2024/01/31 07:25:13;;;;;;;1.73;1.60;;;8.00;99.90;;;;;;5099430;28;20448;-80
2024/01/31 07:27:40;;;;;;;3.60;1.67;;;8.00;99.90;;;;;;5098336;28;20447;-81
2024/01/31 07:30:10;;;;;;;9.00;2.43;;;8.10;99.90;;;;;;5098820;28;20814;-81
2024/01/31 07:32:38;;;;;;;2.13;2.00;;;8.00;99.90;;;;;;5098864;28;20959;-81
2024/01/31 07:35:07;;;;;;;2.90;2.07;;;8.10;99.90;;;;;;5099175;28;20444;-81
2024/01/31 07:37:33;;;;;;;2.20;1.47;;;8.10;99.90;;;;;;5098894;28;20437;-81
2024/01/31 07:40:00;;;;;;;3.33;1.70;;;8.10;99.90;;;;;;5099235;28;20451;-81
2024/01/31 07:42:27;;;;;;;3.07;2.17;;;8.10;99.90;;;;;;5098864;28;20467;-81
2024/01/31 07:44:54;;;;;;;4.60;1.73;;;8.10;99.90;;;;;;5099228;28;20456;-81
2024/01/31 07:47:20;;;;;;;1.40;1.30;;;8.00;99.90;;;;;;5099135;28;20451;-81
2024/01/31 07:49:49;;;;;;;1.30;1.20;;;8.00;99.90;;;;;;5099824;28;20455;-81
2024/01/31 07:52:15;;;;;;;1.90;1.80;;;8.00;99.90;;;;;;5098907;28;20495;-81
2024/01/31 07:54:42;;;;;;;3.10;1.83;;;8.10;99.90;;;;;;5100310;28;20451;-83
2024/01/31 07:57:09;;;;;;;4.10;2.17;;;8.10;99.90;;;;;;5099466;28;20463;-82
2024/01/31 07:59:36;;;;;;;2.23;1.20;;;8.10;99.90;;;;;;5099299;28;20454;-80
2024/01/31 08:02:03;;;;;;;4.30;1.97;;;8.20;99.90;;;;;;5099018;28;20976;-80
2024/01/31 08:04:30;;;;;;;2.90;1.43;;;8.20;99.90;;;;;;5099247;28;20451;-80
2024/01/31 08:06:58;;;;;;;2.30;1.37;;;8.20;99.90;;;;;;5098848;28;20467;-82
2024/01/31 08:09:25;;;;;;;4.30;1.23;;;8.20;99.90;;;;;;5099081;28;20432;-82
2024/01/31 08:11:52;;;;;;;3.27;1.67;;;8.20;99.90;;;;;;5098785;28;20487;-82
2024/01/31 08:14:18;;;;;;;1.87;1.40;;;8.20;99.90;;;;;;5099320;28;20471;-82
2024/01/31 08:16:49;;;;;;;3.87;2.47;;;8.20;99.90;;;;;;5098807;28;20936;-82
2024/01/31 08:19:15;;;;;;;1.87;1.67;;;8.20;99.90;;;;;;5097911;28;20905;-82
2024/01/31 08:21:42;;;;;;;5.80;2.13;;;8.20;99.90;;;;;;5096800;28;20469;-82
2024/01/31 08:24:10;;;;;;;5.20;1.80;;;8.20;99.90;;;;;;5098409;28;20443;-82
2024/01/31 08:26:37;;;;;;;2.17;1.63;;;8.20;99.90;;;;;;5098711;28;20448;-80
2024/01/31 08:29:03;;;;;;;2.23;1.00;;;8.20;99.90;;;;;;5098531;28;20452;-80
2024/01/31 08:31:30;;;;;;;3.03;2.47;;;8.20;99.90;;;;;;5098901;28;20476;-80
2024/01/31 08:33:57;;;;;;;1.80;1.57;;;8.20;99.90;;;;;;5098413;28;20444;-80
2024/01/31 08:36:24;;;;;;;3.43;2.33;;;8.20;99.90;;;;;;5098688;28;20451;-80
2024/01/31 08:38:50;;;;;;;1.97;1.70;;;8.20;99.90;;;;;;5097308;28;20443;-80
2024/01/31 08:41:19;;;;;;;4.70;1.97;;;8.30;99.90;;;;;;5097864;28;20525;-80
2024/01/31 08:43:46;;;;;;;4.67;2.50;;;8.30;99.90;;;;;;5097729;28;20458;-80
2024/01/31 08:46:13;;;;;;;4.30;2.50;;;8.40;99.90;;;;;;5097617;28;20447;-80
2024/01/31 08:48:40;;;;;;;1.70;1.40;;;8.30;99.90;;;;;;5096974;28;21002;-80
2024/01/31 08:51:07;;;;;;;2.47;2.03;;;8.40;99.90;;;;;;5097171;28;20483;-80
2024/01/31 08:53:34;;;;;;;6.87;2.27;;;8.40;99.90;;;;;;5097639;28;20455;-80
2024/01/31 08:56:01;;;;;;;3.53;2.60;;;8.50;99.90;;;;;;5096909;28;20824;-80
2024/01/31 08:58:29;;;;;;;7.57;3.13;;;8.50;99.90;;;;;;5096574;28;20971;-80
2024/01/31 09:00:56;;;;;;;2.23;2.03;;;8.60;99.90;;;;;;5096807;28;20463;-80
2024/01/31 09:03:23;;;;;;;2.70;2.07;;;8.60;99.90;;;;;;5096537;28;20489;-80
2024/01/31 09:05:50;;;;;;;3.77;2.53;;;8.70;99.90;;;;;;5096849;28;20467;-80
2024/01/31 09:08:16;;;;;;;2.13;1.50;;;8.70;99.90;;;;;;5096693;28;20479;-80
2024/01/31 09:10:43;;;;;;;9.53;2.00;;;8.80;99.90;;;;;;5096574;28;21011;-80
2024/01/31 09:13:10;;;;;;;5.17;2.57;;;8.80;99.90;;;;;;5096074;28;20523;-80
2024/01/31 09:15:38;;;;;;;4.80;2.47;;;8.80;99.90;;;;;;5096386;28;20432;-80
2024/01/31 09:18:05;;;;;;;8.03;3.03;;;8.80;99.90;;;;;;5096841;28;20447;-80
2024/01/31 09:20:32;;;;;;;2.77;2.20;;;8.80;99.90;;;;;;5098790;28;20456;-80
2024/01/31 09:22:58;;;;;;;3.13;1.90;;;8.80;99.90;;;;;;5098515;28;20435;-80
2024/01/31 09:25:25;;;;;;;3.70;2.83;;;8.80;99.90;;;;;;5098085;28;20448;-80
2024/01/31 09:27:52;;;;;;;5.60;2.57;;;8.90;99.90;;;;;;5097676;28;20432;-80
2024/01/31 09:30:19;;;;;;;3.53;2.73;;;8.90;99.90;;;;;;5097366;28;20443;-81
2024/01/31 09:32:47;;;;;;;5.33;2.63;;;9.00;99.90;;;;;;5096981;28;20480;-80
2024/01/31 09:35:14;;;;;;;4.57;2.90;;;9.00;99.90;;;;;;5097281;28;20451;-80
2024/01/31 09:37:41;;;;;;;5.97;2.37;;;9.10;99.90;;;;;;5096959;28;20439;-80
2024/01/31 09:40:09;;;;;;;2.90;1.87;;;9.10;99.90;;;;;;5096419;28;20448;-80
2024/01/31 09:42:37;;;;;;;4.87;2.60;;;9.10;99.90;;;;;;5096444;28;20443;-80
2024/01/31 09:45:05;;;;;;;2.73;2.40;;;9.20;99.90;;;;;;5097494;28;20454;-80
2024/01/31 09:47:33;;;;;;;4.87;2.73;;;9.20;99.90;;;;;;5096854;28;20447;-80
2024/01/31 09:50:02;;;;;;;4.83;2.97;;;9.30;99.90;;;;;;5098524;28;20470;-81
2024/01/31 09:52:29;;;;;;;6.37;3.60;;;9.40;99.90;;;;;;5098737;28;20479;-81
2024/01/31 09:54:58;;;;;;;7.60;2.50;;;9.40;99.90;;;;;;5098444;28;20983;-81
2024/01/31 09:57:25;;;;;;;4.17;2.83;;;9.40;99.90;;;;;;5096362;28;20792;-81
2024/01/31 09:59:52;;;;;;;3.37;1.90;;;9.40;99.90;;;;;;5096306;28;20447;-81
2024/01/31 10:02:19;;;;;;;2.03;1.77;;;9.50;99.90;;;;;;5095924;28;20472;-82
2024/01/31 10:04:47;;;;;;;3.63;2.53;;;9.50;99.90;;;;;;5096313;28;20454;-81
2024/01/31 10:07:22;;;;;;;6.03;2.30;;;9.50;99.90;;;;;;5095911;28;20975;-81
2024/01/31 10:09:49;;;;;;;2.73;1.83;;;9.70;99.90;;;;;;5095346;28;20424;-81
2024/01/31 10:12:17;;;;;;;3.60;2.60;;;9.80;99.90;;;;;;5095398;28;20533;-81
2024/01/31 10:14:44;;;;;;;2.67;2.20;;;9.90;99.90;;;;;;5095561;28;20470;-81
2024/01/31 10:17:11;;;;;;;4.20;3.00;;;10.00;99.90;;;;;;5099598;28;20824;-81
2024/01/31 10:19:38;;;;;;;7.53;2.63;;;10.00;99.90;;;;;;5099005;28;20451;-81
2024/01/31 10:22:05;;;;;;;3.07;2.70;;;10.10;99.90;;;;;;5099001;28;20455;-81
2024/01/31 10:24:33;;;;;;;2.20;1.63;;;10.10;99.90;;;;;;5098985;28;20455;-81
2024/01/31 10:27:00;;;;;;;3.90;2.73;;;10.10;99.90;;;;;;5099176;28;20444;-81
2024/01/31 10:29:27;;;;;;;6.90;2.70;;;10.20;99.90;;;;;;5098600;28;20444;-81
2024/01/31 10:31:54;;;;;;;3.33;2.73;;;10.20;99.90;;;;;;5098733;28;20490;-81
2024/01/31 10:34:23;;;;;;;4.27;2.77;;;10.20;99.90;;;;;;5098769;28;20456;-82
2024/01/31 10:36:50;;;;;;;13.10;2.20;;;10.30;99.90;;;;;;5099892;28;20470;-81
2024/01/31 10:39:20;;;;;;;4.60;2.37;;;10.20;99.90;;;;;;5100430;28;20791;-81
2024/01/31 10:41:49;;;;;;;2.63;1.70;;;10.30;99.90;;;;;;5101176;28;20456;-81
2024/01/31 10:44:16;;;;;;;3.53;2.83;;;10.30;99.90;;;;;;5100491;28;20432;-81
2024/01/31 10:46:43;;;;;;;4.30;2.63;;;10.30;99.90;;;;;;5100793;28;20451;-81
2024/01/31 10:49:11;;;;;;;3.13;2.00;;;10.30;99.90;;;;;;5101594;28;20458;-81
2024/01/31 10:51:39;;;;;;;5.40;2.17;;;10.40;99.90;;;;;;5101010;28;20486;-81
2024/01/31 10:54:08;;;;;;;7.77;3.17;;;10.50;99.90;;;;;;5099173;28;20432;-81
2024/01/31 10:56:36;;;;;;;3.00;2.33;;;10.40;99.90;;;;;;5099418;28;20515;-81
2024/01/31 10:59:06;;;;;;;2.43;1.73;;;10.50;99.90;;;;;;5099336;28;20448;-80
2024/01/31 11:01:33;;;;;;;4.07;2.17;;;10.60;99.90;;;;;;5099380;28;20471;-81
2024/01/31 11:04:01;;;;;;;1.57;1.47;;;10.70;99.90;;;;;;5100095;28;20795;-81
2024/01/31 11:06:31;;;;;;;3.10;2.13;;;10.70;99.90;;;;;;5100692;28;20446;-81
2024/01/31 11:09:00;;;;;;;3.63;2.53;;;10.90;99.90;;;;;;5101181;28;20509;-81
2024/01/31 11:11:26;;;;;;;5.13;2.30;;;10.70;99.90;;;;;;5102267;28;20483;-81
2024/01/31 11:13:56;;;;;;;5.00;3.80;;;10.70;99.90;;;;;;5101817;28;20819;-81
2024/01/31 11:16:27;;;;;;;3.67;1.80;;;10.80;99.90;;;;;;5101597;28;20451;-81
2024/01/31 11:18:54;;;;;;;2.67;2.03;;;10.90;99.90;;;;;;5099808;28;20482;-81
2024/01/31 11:21:22;;;;;;;3.53;2.50;;;10.90;99.90;;;;;;5099828;28;20472;-81
2024/01/31 11:23:49;;;;;;;3.47;1.60;;;11.00;99.90;;;;;;5099465;28;20455;-80
2024/01/31 11:26:16;;;;;;;7.50;2.53;;;11.00;99.90;;;;;;5100780;28;20452;-81
2024/01/31 11:28:43;;;;;;;2.67;2.47;;;11.00;99.90;;;;;;5096250;28;20452;-81
2024/01/31 11:31:10;;;;;;;3.43;2.23;;;10.90;99.90;;;;;;5096596;28;20521;-81
2024/01/31 11:33:39;;;;;;;3.30;2.23;;;10.80;99.90;;;;;;5096414;28;20479;-81
2024/01/31 11:36:07;;;;;;;8.80;2.50;;;10.90;99.90;;;;;;5101694;28;20439;-81
2024/01/31 11:38:33;;;;;;;6.87;2.20;;;10.80;99.90;;;;;;5099330;28;20427;-81
2024/01/31 11:41:00;;;;;;;3.37;2.33;;;10.80;99.90;;;;;;5096511;28;20464;-81
2024/01/31 11:43:27;;;;;;;2.57;2.20;;;10.80;99.90;;;;;;5096227;28;20939;-81
2024/01/31 11:45:54;;;;;;;3.30;2.37;;;10.80;99.90;;;;;;5095939;28;20458;-81
2024/01/31 11:48:22;;;;;;;5.60;2.20;;;10.80;99.90;;;;;;5095571;28;20454;-81
2024/01/31 11:50:50;;;;;;;5.60;2.90;;;10.80;99.90;;;;;;5095778;28;20876;-81
2024/01/31 11:53:17;;;;;;;1.70;1.60;;;10.90;99.90;;;;;;5095712;28;20484;-81
2024/01/31 11:55:43;;;;;;;4.67;2.00;;;11.00;99.90;;;;;;5096362;28;20435;-81
2024/01/31 11:58:10;;;;;;;2.50;1.73;;;11.20;99.90;;;;;;5099995;28;20443;-81
2024/01/31 12:00:37;;;;;;;4.17;2.47;;;11.20;99.90;;;;;;5096945;28;20468;-81
2024/01/31 12:03:05;;;;;;;3.23;2.30;;;11.40;99.90;;;;;;5096640;28;20432;-80
2024/01/31 12:05:32;;;;;;;3.33;1.70;;;11.50;99.90;;;;;;5096364;28;20810;-81
2024/01/31 12:08:00;;;;;;;2.03;1.93;;;11.60;99.90;;;;;;5096048;28;20851;-80
2024/01/31 12:10:28;;;;;;;2.40;2.00;;;11.70;99.90;;;;;;5096358;28;20452;-81
2024/01/31 12:12:55;;;;;;;5.87;1.83;;;11.80;99.90;;;;;;5096103;28;20487;-81
2024/01/31 12:15:23;;;;;;;9.87;3.20;;;11.70;99.90;;;;;;5096444;28;20974;-81
2024/01/31 12:17:51;;;;;;;3.93;2.43;;;11.70;99.90;;;;;;5096135;28;20443;-81
2024/01/31 12:20:18;;;;;;;2.23;1.33;;;11.70;99.90;;;;;;5096421;28;20534;-81
2024/01/31 12:22:46;;;;;;;3.00;1.90;;;11.70;99.90;;;;;;5096547;28;20444;-81
2024/01/31 12:25:14;;;;;;;4.07;1.70;;;11.70;99.90;;;;;;5095990;28;20458;-81
2024/01/31 12:27:41;;;;;;;4.07;2.10;;;11.70;99.90;;;;;;5095546;28;20462;-81
2024/01/31 12:30:09;;;;;;;5.00;2.30;;;11.70;99.90;;;;;;5095487;28;20448;-81
2024/01/31 12:32:36;;;;;;;5.47;2.30;;;11.70;99.90;;;;;;5102591;28;21004;-81
2024/01/31 12:35:02;;;;;;;2.80;1.83;;;11.80;99.90;;;;;;5101405;28;20452;-81
2024/01/31 12:37:29;;;;;;;2.73;1.40;;;11.80;99.90;;;;;;5095115;28;20448;-81
2024/01/31 12:39:56;;;;;;;7.43;2.40;;;11.70;99.90;;;;;;5095596;28;20448;-82
2024/01/31 12:42:24;;;;;;;4.67;1.77;;;11.70;99.90;;;;;;5098562;28;20471;-82
2024/01/31 12:44:51;;;;;;;2.00;1.80;;;11.80;99.90;;;;;;5095975;28;20451;-82
2024/01/31 12:47:17;;;;;;;3.33;1.70;;;11.90;99.90;;;;;;5100753;28;20428;-82
2024/01/31 12:49:44;;;;;;;2.33;1.13;;;12.10;99.90;;;;;;5104579;28;20448;-81
2024/01/31 12:52:11;;;;;;;2.50;1.90;;;12.00;99.90;;;;;;5116210;28;20495;-82
2024/01/31 12:54:38;;;;;;;1.87;1.20;;;12.10;99.90;;;;;;5112266;28;20470;-81